Terminal Aerodrome Forecast
Issued by NWS

Home | Current Version | Previous Version | Text Only | Print | Product List | Glossary On
Versions: 1 2 3 4 5 6 7 8 9 10 11 12 13 14 15 16 17 18 19 20 21 22 23 24 25
000
FTUS41 KOKX 232300
TAFTEB
TAF
KTEB 232327Z 2400/2424 22010KT P6SM SCT050 SCT150 BKN250
      TEMPO 2400/2402 4SM TSRA SCT025 BKN050CB
     FM240200 25007KT 5SM SHRA BR VCTS BKN040CB OVC120
     FM240500 35012KT P6SM SCT050 OVC120
     FM241300 34011G18KT P6SM SCT050 SCT150 BKN250
     FM242100 33010KT P6SM FEW050 BKN250=

USA.gov is the U.S. government's official web portal to all federal, state and local government web resources and services.